Time;durP1;ratioP1;P1;durP2;ratioP2;P2;SDS_P1;SDS_P2;PMS_P1;PMS_P2;Temp;Humidity;BMP_temperature;BMP_pressure;BME280_temperature;BME280_humidity;BME280_pressure;Samples;Min_cycle;Max_cycle;Signal;HPM_P1;HPM_P2
2023/09/11 00:04:33;;;;;;;17.87;13.10;;;;;;;20.76;92.85;100690.34;4930679;58;1143011;-74
2023/09/11 00:09:39;;;;;;;21.14;13.38;;;;;;;20.77;92.51;100683.95;5106571;55;1143041;-74
2023/09/11 00:14:44;;;;;;;19.07;12.80;;;;;;;20.83;92.66;100693.97;5078263;57;1142669;-74
2023/09/11 00:19:50;;;;;;;19.12;12.60;;;;;;;20.81;92.39;100686.08;5184353;55;1142761;-74
2023/09/11 00:24:55;;;;;;;23.45;12.07;;;;;;;20.78;92.43;100682.94;5078806;56;1143266;-74
2023/09/11 00:30:01;;;;;;;14.65;11.93;;;;;;;20.62;91.40;100669.12;5112956;55;1143016;-74
2023/09/11 00:35:07;;;;;;;16.30;11.90;;;;;;;20.60;91.88;100670.65;5079190;55;1152547;-74
2023/09/11 00:40:13;;;;;;;12.93;11.28;;;;;;;20.29;90.70;100673.36;5097982;57;1143089;-74
2023/09/11 00:45:19;;;;;;;16.17;12.68;;;;;;;20.15;91.59;100673.30;5079161;56;1142933;-74
2023/09/11 00:50:25;;;;;;;16.50;11.78;;;;;;;20.11;93.43;100674.14;5079228;56;1142959;-74
2023/09/11 00:55:31;;;;;;;15.55;11.22;;;;;;;20.10;93.69;100668.95;5102970;56;1143016;-74
2023/09/11 01:00:36;;;;;;;16.85;11.12;;;;;;;20.13;93.17;100674.81;5099146;56;1143050;-74
2023/09/11 01:05:44;;;;;;;16.47;11.97;;;;;;;19.96;93.27;100674.57;5079892;56;1143060;-74
2023/09/11 01:10:49;;;;;;;11.13;10.00;;;;;;;19.89;93.88;100673.58;5035209;56;1142900;-74
2023/09/11 01:16:24;;;;;;;18.55;10.45;;;;;;;19.83;93.46;100669.77;5013890;57;1142725;-74
2023/09/11 01:22:02;;;;;;;11.20;10.08;;;;;;;19.78;93.91;100667.27;5015133;57;1142827;-74
2023/09/11 01:27:29;;;;;;;14.68;11.22;;;;;;;19.50;92.92;100673.09;5017163;57;1143157;-74
2023/09/11 01:32:35;;;;;;;16.77;11.90;;;;;;;19.32;94.60;100671.09;5047089;56;1200612;-74
2023/09/11 01:37:41;;;;;;;14.46;11.64;;;;;;;19.28;95.05;100672.44;4958435;58;1143008;-75
2023/09/11 01:42:50;;;;;;;12.45;9.93;;;;;;;19.36;95.86;100659.02;4934573;57;1143105;-74
2023/09/11 01:47:55;;;;;;;13.83;10.38;;;;;;;19.24;94.37;100664.43;5014067;57;1140924;-74
2023/09/11 01:53:01;;;;;;;12.70;11.12;;;;;;;18.98;94.26;100668.64;5030758;56;1142816;-74
2023/09/11 01:58:07;;;;;;;12.78;9.80;;;;;;;19.05;95.82;100659.44;5004759;56;1142992;-74
2023/09/11 02:03:16;;;;;;;14.83;10.63;;;;;;;19.03;95.07;100660.94;4992920;56;1141052;-74
2023/09/11 02:08:20;;;;;;;12.15;10.03;;;;;;;19.02;96.39;100653.91;5076507;56;1143160;-75
2023/09/11 02:13:25;;;;;;;14.45;9.73;;;;;;;19.06;96.48;100646.36;5154388;55;1142871;-74
2023/09/11 02:18:31;;;;;;;12.35;9.90;;;;;;;19.09;96.16;100652.23;5165175;55;1140945;-74
2023/09/11 02:23:37;;;;;;;11.70;9.74;;;;;;;19.10;95.96;100640.47;5175116;56;1149741;-75
2023/09/11 02:28:43;;;;;;;15.48;10.25;;;;;;;19.15;96.34;100650.69;5159147;55;1140749;-74
2023/09/11 02:33:48;;;;;;;17.23;9.58;;;;;;;19.16;95.63;100648.34;5163957;56;1143000;-74
2023/09/11 02:38:54;;;;;;;13.72;9.73;;;;;;;19.04;94.17;100646.53;5185481;55;1140949;-74
2023/09/11 02:43:59;;;;;;;13.32;10.13;;;;;;;18.83;95.02;100641.70;5165404;55;1140811;-74
2023/09/11 02:49:05;;;;;;;15.40;10.30;;;;;;;18.74;95.07;100640.55;5164648;55;1142866;-75
2023/09/11 02:54:11;;;;;;;21.52;9.53;;;;;;;18.70;95.79;100641.88;5165351;55;1143060;-74
2023/09/11 02:59:16;;;;;;;13.18;10.03;;;;;;;18.76;96.77;100637.20;5187961;55;1140923;-74
2023/09/11 03:04:22;;;;;;;25.97;11.22;;;;;;;18.81;96.04;100646.88;5185206;55;1142672;-75
2023/09/11 03:09:28;;;;;;;14.13;11.68;;;;;;;18.80;96.10;100651.91;5098994;56;1143124;-74
2023/09/11 03:14:34;;;;;;;15.43;10.30;;;;;;;18.64;95.35;100643.91;5119344;56;1143027;-74
2023/09/11 03:19:40;;;;;;;16.10;10.40;;;;;;;18.61;95.93;100641.06;5099128;56;1142985;-74
2023/09/11 03:24:46;;;;;;;11.93;9.53;;;;;;;18.65;96.35;100642.38;5123866;56;1143136;-74
2023/09/11 03:29:54;;;;;;;16.67;10.25;;;;;;;18.66;95.99;100637.35;5204868;55;1140804;-74
2023/09/11 03:35:00;;;;;;;16.70;9.88;;;;;;;18.67;95.23;100624.80;5185175;55;1143005;-74
2023/09/11 03:40:13;;;;;;;21.65;9.98;;;;;;;18.56;95.05;100629.47;5185206;55;1141335;-73
2023/09/11 03:45:16;;;;;;;14.25;9.93;;;;;;;18.47;95.61;100630.48;5186155;55;1140769;-71
2023/09/11 03:50:22;;;;;;;12.18;9.88;;;;;;;18.47;95.88;100632.33;5175279;55;1140814;-73
2023/09/11 03:55:28;;;;;;;17.87;10.23;;;;;;;18.30;95.02;100628.80;5099119;56;1140674;-73
2023/09/11 04:00:35;;;;;;;14.45;9.90;;;;;;;18.16;95.07;100624.09;5158311;56;1142858;-75
2023/09/11 04:05:40;;;;;;;16.15;10.00;;;;;;;18.22;96.22;100620.23;5184998;56;1140762;-74
2023/09/11 04:10:46;;;;;;;14.90;10.68;;;;;;;18.08;94.70;100611.53;5105965;56;1143136;-74
2023/09/11 04:15:51;;;;;;;23.02;9.85;;;;;;;18.06;96.14;100617.55;5099708;56;1143018;-74
2023/09/11 04:21:04;;;;;;;51.37;11.28;;;;;;;18.12;96.53;100617.39;5119042;56;1140612;-74
2023/09/11 04:26:11;;;;;;;41.73;11.75;;;;;;;18.14;96.46;100612.22;5025859;55;1142852;-74
2023/09/11 04:31:17;;;;;;;18.27;9.57;;;;;;;18.11;95.81;100612.54;5045009;56;1143024;-74
2023/09/11 04:36:23;;;;;;;20.10;9.68;;;;;;;18.11;95.63;100613.04;5074467;56;1140859;-74
2023/09/11 04:41:28;;;;;;;21.63;11.03;;;;;;;18.11;96.10;100609.86;5052257;56;1140768;-74
2023/09/11 04:46:34;;;;;;;18.07;10.53;;;;;;;18.08;95.27;100610.19;4971679;57;1142836;-73
2023/09/11 04:51:43;;;;;;;43.15;13.05;;;;;;;17.85;95.17;100614.51;5000627;57;1143124;-74
2023/09/11 04:56:48;;;;;;;46.98;12.37;;;;;;;17.89;96.93;100614.49;4950443;57;1143121;-73
2023/09/11 05:01:54;;;;;;;49.03;13.48;;;;;;;17.96;97.33;100610.17;4998612;56;1143091;-74
2023/09/11 05:07:00;;;;;;;20.25;10.55;;;;;;;18.01;96.87;100610.53;5056626;56;1143839;-75
2023/09/11 05:12:06;;;;;;;50.60;13.05;;;;;;;18.02;97.45;100600.66;5127803;56;1142617;-74
2023/09/11 05:17:12;;;;;;;31.07;12.13;;;;;;;17.91;97.48;100609.32;5106329;56;1142990;-73
2023/09/11 05:22:17;;;;;;;16.94;11.94;;;;;;;17.96;98.53;100608.00;5014972;57;1143123;-74
2023/09/11 05:27:23;;;;;;;16.65;11.73;;;;;;;18.03;99.35;100607.16;4989539;57;1142821;-74
2023/09/11 05:32:29;;;;;;;41.58;13.40;;;;;;;18.16;99.90;100608.04;5014156;56;1142992;-74
2023/09/11 05:37:35;;;;;;;21.35;12.73;;;;;;;18.30;100.00;100603.86;5053147;56;1143039;-74
2023/09/11 05:42:40;;;;;;;17.35;14.23;;;;;;;18.41;100.00;100607.53;5039567;56;1145035;-74
2023/09/11 05:47:46;;;;;;;36.80;15.43;;;;;;;18.55;100.00;100606.36;5078813;56;1145038;-74
2023/09/11 05:52:51;;;;;;;18.35;14.30;;;;;;;18.80;100.00;100602.34;5098736;56;1145091;-74
2023/09/11 05:57:57;;;;;;;53.68;34.10;;;;;;;19.04;100.00;100600.13;5087709;56;1145203;-74
2023/09/11 06:03:03;;;;;;;27.13;15.30;;;;;;;19.26;100.00;100600.70;5081068;56;1144984;-74
2023/09/11 06:08:09;;;;;;;33.10;15.75;;;;;;;19.60;100.00;100597.24;5084547;56;1145171;-74
2023/09/11 06:13:14;;;;;;;34.58;18.57;;;;;;;19.96;100.00;100592.69;5099294;56;1145354;-73
2023/09/11 06:18:20;;;;;;;22.45;15.05;;;;;;;20.22;100.00;100584.27;5024411;56;1144955;-74
2023/09/11 06:23:25;;;;;;;25.75;13.85;;;;;;;20.15;100.00;100596.25;4972985;56;1144999;-74
2023/09/11 06:28:31;;;;;;;27.60;16.97;;;;;;;20.01;100.00;100586.28;5075921;56;1145029;-74
2023/09/11 06:33:36;;;;;;;20.45;14.58;;;;;;;20.00;100.00;100591.33;4996333;57;1145012;-75
2023/09/11 06:38:42;;;;;;;22.77;15.98;;;;;;;19.99;100.00;100597.20;5079122;56;1144951;-73
2023/09/11 06:43:48;;;;;;;25.30;17.55;;;;;;;20.00;100.00;100588.13;5015165;56;1144963;-73
2023/09/11 06:48:53;;;;;;;18.82;16.37;;;;;;;20.09;100.00;100594.78;5079059;56;1145193;-74
2023/09/11 06:53:59;;;;;;;35.58;16.10;;;;;;;20.24;100.00;100599.70;4996185;57;1145094;-74
2023/09/11 06:59:05;;;;;;;27.35;16.93;;;;;;;20.37;100.00;100601.30;5083722;56;1145203;-75
2023/09/11 07:04:11;;;;;;;21.10;16.50;;;;;;;20.57;100.00;100601.14;5015645;56;1145011;-73
2023/09/11 07:09:16;;;;;;;19.73;16.67;;;;;;;20.74;100.00;100605.02;4984004;57;1145118;-74
2023/09/11 07:14:24;;;;;;;20.17;16.48;;;;;;;21.02;100.00;100613.63;5028630;57;1145192;-74
2023/09/11 07:19:29;;;;;;;18.62;16.07;;;;;;;21.29;100.00;100610.83;5053219;58;1145204;-74
2023/09/11 07:24:35;;;;;;;26.35;19.35;;;;;;;21.56;100.00;100608.47;5037946;57;1144889;-73
2023/09/11 07:29:40;;;;;;;24.45;20.00;;;;;;;21.78;100.00;100609.38;5033007;57;1145132;-73
2023/09/11 07:34:46;;;;;;;23.18;18.95;;;;;;;22.08;100.00;100610.47;5016663;56;1145269;-74
2023/09/11 07:39:52;;;;;;;20.32;16.60;;;;;;;22.24;100.00;100605.34;4955209;58;1144913;-74
2023/09/11 07:44:57;;;;;;;27.48;17.80;;;;;;;22.49;100.00;100600.38;5159637;55;1144893;-73
2023/09/11 07:50:03;;;;;;;19.50;17.50;;;;;;;22.60;100.00;100608.47;5020563;58;1145328;-74
2023/09/11 07:55:09;;;;;;;21.87;16.95;;;;;;;22.75;100.00;100611.91;5107787;56;1145292;-74
2023/09/11 08:00:15;;;;;;;25.25;18.17;;;;;;;22.94;98.60;100606.34;5153462;56;1145264;-74
2023/09/11 08:05:21;;;;;;;20.27;16.50;;;;;;;23.12;97.69;100608.86;5101594;56;1143158;-74
2023/09/11 08:10:28;;;;;;;27.95;18.32;;;;;;;23.30;97.85;100606.16;5022721;56;1143095;-73
2023/09/11 08:15:34;;;;;;;22.22;17.02;;;;;;;23.49;97.42;100607.61;5028029;58;1142790;-73
2023/09/11 08:20:42;;;;;;;20.92;14.25;;;;;;;23.73;96.57;100602.22;4997932;57;1143294;-74
2023/09/11 08:25:48;;;;;;;15.88;14.18;;;;;;;24.11;97.42;100601.20;4988402;57;1142988;-73
2023/09/11 08:30:53;;;;;;;21.17;15.25;;;;;;;24.40;96.32;100591.90;5056519;56;1143113;-74
2023/09/11 08:35:59;;;;;;;22.87;14.10;;;;;;;24.69;93.79;100603.33;5040047;56;1143038;-75
2023/09/11 08:41:07;;;;;;;17.43;11.47;;;;;;;24.90;92.95;100602.56;5074092;56;1142974;-74
2023/09/11 08:46:18;;;;;;;11.65;9.85;;;;;;;25.09;91.21;100608.19;5102922;55;1143201;-74
2023/09/11 08:51:37;;;;;;;20.20;9.30;;;;;;;25.32;89.74;100603.14;5100454;56;1140762;-73
2023/09/11 08:56:43;;;;;;;14.38;10.70;;;;;;;25.51;85.97;100614.41;4996290;57;1140742;-74
2023/09/11 09:01:50;;;;;;;10.13;8.68;;;;;;;25.62;81.71;100609.42;4929965;57;1142967;-74
2023/09/11 09:06:56;;;;;;;10.95;8.10;;;;;;;25.78;81.03;100607.58;5033243;56;1140839;-74
2023/09/11 09:12:02;;;;;;;16.00;9.25;;;;;;;25.91;81.35;100602.91;5079650;56;1140980;-74
2023/09/11 09:17:08;;;;;;;15.70;11.10;;;;;;;26.21;81.86;100603.14;4991787;57;1140971;-74
2023/09/11 09:22:14;;;;;;;11.40;8.73;;;;;;;26.33;80.55;100607.88;4996777;57;1143280;-74
2023/09/11 09:27:33;;;;;;;10.82;8.75;;;;;;;26.57;79.54;100603.84;5089405;56;1140768;-75
2023/09/11 09:32:35;;;;;;;12.07;8.55;;;;;;;26.72;76.33;100599.97;4999387;56;1140939;-75
2023/09/11 09:37:41;;;;;;;8.58;7.70;;;;;;;26.85;76.05;100597.95;4996392;57;1140701;-75
2023/09/11 09:42:46;;;;;;;12.23;6.63;;;;;;;27.06;77.55;100595.88;5056361;57;1138901;-75
2023/09/11 09:48:19;;;;;;;9.52;6.22;;;;;;;27.17;73.39;100591.08;4986824;57;1140966;-76
2023/09/11 09:53:28;;;;;;;9.18;6.30;;;;;;;27.31;70.03;100578.48;5022557;56;1138814;-74
2023/09/11 09:58:42;;;;;;;8.95;6.87;;;;;;;27.44;68.35;100576.13;5024163;57;1138682;-74
2023/09/11 10:03:55;;;;;;;8.28;6.37;;;;;;;27.56;69.42;100568.03;4972468;57;1138725;-75
2023/09/11 10:09:12;;;;;;;11.45;6.70;;;;;;;27.80;69.44;100558.97;5004559;57;1138705;-75
2023/09/11 10:14:20;;;;;;;7.72;5.80;;;;;;;27.99;66.26;100555.63;5066703;56;1141022;-75
2023/09/11 10:19:30;;;;;;;7.35;6.00;;;;;;;27.97;62.07;100546.88;5099385;56;1138962;-74
2023/09/11 10:24:35;;;;;;;10.53;5.22;;;;;;;28.00;62.83;100551.86;5109591;56;1139113;-74
2023/09/11 10:29:48;;;;;;;13.10;5.97;;;;;;;28.24;64.40;100545.98;5062125;55;1140681;-75
2023/09/11 10:34:55;;;;;;;11.48;6.67;;;;;;;28.43;61.72;100534.45;4987767;56;1140759;-75
2023/09/11 10:40:03;;;;;;;10.57;4.70;;;;;;;28.51;60.08;100538.20;5060652;56;1141355;-75
2023/09/11 10:45:30;;;;;;;9.03;6.28;;;;;;;28.72;59.96;100528.63;5026813;56;1141023;-74
2023/09/11 10:50:39;;;;;;;9.20;5.62;;;;;;;28.85;57.68;100528.41;5027535;56;1138981;-75
2023/09/11 10:55:45;;;;;;;5.97;5.22;;;;;;;28.84;55.79;100527.58;5049782;56;1138696;-75
2023/09/11 11:00:55;;;;;;;18.25;5.72;;;;;;;28.94;55.31;100522.88;5013492;56;1138746;-75
2023/09/11 11:06:02;;;;;;;7.97;5.23;;;;;;;29.05;53.72;100512.48;5034958;56;1140823;-75
2023/09/11 11:11:30;;;;;;;5.83;5.33;;;;;;;29.17;54.90;100515.20;5060728;56;1138674;-75
2023/09/11 11:16:31;;;;;;;11.10;4.92;;;;;;;29.42;57.35;100502.11;5081154;56;1138711;-75
2023/09/11 11:21:42;;;;;;;7.80;5.72;;;;;;;29.56;54.47;100503.46;5042903;56;1140886;-75
2023/09/11 11:26:48;;;;;;;8.08;6.00;;;;;;;29.76;52.92;100503.02;5087326;56;1138782;-75
2023/09/11 11:31:59;;;;;;;7.62;5.55;;;;;;;29.87;54.06;100503.48;5074616;56;1139069;-76
2023/09/11 11:37:06;;;;;;;6.50;5.20;;;;;;;30.02;51.88;100493.40;5107568;56;1138713;-75
2023/09/11 11:42:11;;;;;;;6.20;4.92;;;;;;;30.13;52.97;100495.21;5045427;56;1138887;-75
2023/09/11 11:47:19;;;;;;;9.05;4.85;;;;;;;30.26;51.97;100496.77;5096595;56;1138777;-75
2023/09/11 11:52:24;;;;;;;9.38;5.17;;;;;;;30.30;49.54;100502.86;5059655;56;1138728;-74
2023/09/11 11:57:31;;;;;;;5.50;5.00;;;;;;;30.28;49.23;100498.18;5093438;57;1138683;-76
2023/09/11 12:02:37;;;;;;;6.40;5.45;;;;;;;30.37;47.98;100501.33;5118474;56;1139106;-75
2023/09/11 12:07:43;;;;;;;6.78;5.20;;;;;;;30.43;46.82;100498.41;5153235;55;1138567;-75
2023/09/11 12:12:48;;;;;;;9.03;4.78;;;;;;;30.36;47.96;100491.49;5180518;55;1138617;-75
2023/09/11 12:17:55;;;;;;;5.33;4.85;;;;;;;30.41;47.82;100492.91;5104009;56;1138749;-77
2023/09/11 12:23:04;;;;;;;12.30;5.47;;;;;;;30.52;45.85;100495.28;5159599;55;1139009;-75
2023/09/11 12:28:10;;;;;;;12.88;5.25;;;;;;;30.46;46.17;100491.63;5078254;55;1140888;-75
2023/09/11 12:33:17;;;;;;;15.40;5.37;;;;;;;30.50;46.58;100489.23;5118305;56;1141123;-75
2023/09/11 12:38:25;;;;;;;6.80;4.85;;;;;;;30.59;46.21;100482.30;5093507;56;1140773;-75
2023/09/11 12:43:30;;;;;;;8.90;5.35;;;;;;;30.74;46.73;100482.50;5091468;56;1139009;-75
2023/09/11 12:48:42;;;;;;;9.30;5.22;;;;;;;30.84;45.11;100477.73;5116671;55;1138806;-73
2023/09/11 12:53:48;;;;;;;6.42;5.53;;;;;;;31.02;47.80;100476.86;5014293;58;1138791;-74
2023/09/11 12:58:57;;;;;;;7.87;4.72;;;;;;;31.24;46.84;100472.78;5079230;56;1138769;-75
2023/09/11 13:04:02;;;;;;;6.73;4.57;;;;;;;31.15;44.85;100474.87;4997598;57;1138835;-75
2023/09/11 13:09:08;;;;;;;6.58;4.70;;;;;;;31.05;42.25;100471.43;5074666;56;1138902;-75
2023/09/11 13:14:14;;;;;;;7.60;4.30;;;;;;;30.96;43.70;100464.77;5015682;57;1139126;-74
2023/09/11 13:19:19;;;;;;;5.15;4.28;;;;;;;31.02;42.60;100456.37;5034683;57;1138783;-72
2023/09/11 13:24:25;;;;;;;10.55;4.60;;;;;;;31.00;43.17;100453.09;5075094;56;1138647;-73
2023/09/11 13:29:31;;;;;;;10.25;4.90;;;;;;;30.99;43.15;100452.80;5141584;56;1141011;-72
2023/09/11 13:34:37;;;;;;;8.13;4.60;;;;;;;31.14;44.11;100456.83;5164120;55;1140892;-73
2023/09/11 13:39:43;;;;;;;8.73;4.72;;;;;;;31.28;43.03;100455.34;5071757;57;1138905;-73
2023/09/11 13:44:49;;;;;;;12.90;4.87;;;;;;;31.30;42.55;100449.91;5065924;56;1139003;-73
2023/09/11 13:49:54;;;;;;;8.58;5.40;;;;;;;31.42;44.25;100448.38;5024719;56;1140869;-73
2023/09/11 13:55:00;;;;;;;19.02;5.00;;;;;;;31.52;43.27;100443.55;5066437;56;1138852;-73
2023/09/11 14:00:07;;;;;;;5.20;4.70;;;;;;;31.59;44.36;100446.91;5052201;57;1141026;-76
2023/09/11 14:05:14;;;;;;;8.10;4.67;;;;;;;31.56;44.00;100448.25;5000204;57;1138696;-75
2023/09/11 14:10:20;;;;;;;10.82;4.90;;;;;;;31.53;43.72;100450.66;4997051;56;1138890;-74
2023/09/11 14:15:26;;;;;;;12.70;4.53;;;;;;;31.48;43.46;100445.42;5078387;56;1141020;-75
2023/09/11 14:20:32;;;;;;;5.37;4.67;;;;;;;31.54;43.47;100440.84;5059405;56;1140746;-74
2023/09/11 14:25:37;;;;;;;5.08;4.20;;;;;;;31.41;42.59;100443.45;5082478;56;1138772;-75
2023/09/11 14:30:43;;;;;;;6.10;4.40;;;;;;;31.44;44.51;100435.28;5015806;56;1138576;-74
2023/09/11 14:35:49;;;;;;;13.05;4.20;;;;;;;31.55;43.46;100432.92;5102979;56;1138863;-73
2023/09/11 14:40:56;;;;;;;7.85;5.05;;;;;;;31.57;42.34;100426.66;5101334;55;1140635;-74
2023/09/11 14:46:02;;;;;;;7.22;4.34;;;;;;;31.52;40.58;100420.31;5130976;55;1138521;-74
2023/09/11 14:51:08;;;;;;;5.73;4.00;;;;;;;31.52;40.58;100420.31;5041924;57;1138764;-75
2023/09/11 14:56:14;;;;;;;17.43;4.80;;;;;;;31.56;42.53;100422.27;4992258;57;1139108;-73
2023/09/11 15:01:24;;;;;;;11.43;4.83;;;;;;;31.60;42.73;100417.12;4984943;56;1140770;-73
2023/09/11 15:06:29;;;;;;;5.67;4.08;;;;;;;31.54;41.93;100416.23;5009644;56;1140973;-74
2023/09/11 15:11:35;;;;;;;18.23;5.87;;;;;;;31.51;41.19;100414.55;5003213;57;1138861;-74
2023/09/11 15:16:40;;;;;;;5.60;4.85;;;;;;;31.59;40.94;100404.53;4962545;57;1140978;-74
2023/09/11 15:21:46;;;;;;;22.73;10.23;;;;;;;31.50;38.65;100401.43;4917422;57;1138812;-74
2023/09/11 15:26:52;;;;;;;11.38;5.33;;;;;;;31.33;40.20;100397.44;5028727;56;1142848;-75
2023/09/11 15:31:59;;;;;;;6.37;4.83;;;;;;;31.29;39.31;100397.70;5014744;56;1140802;-76
2023/09/11 15:37:06;;;;;;;5.57;5.10;;;;;;;31.22;39.05;100392.97;4992078;57;1138750;-73
2023/09/11 15:42:12;;;;;;;9.17;4.43;;;;;;;31.31;40.66;100393.34;5006103;57;1138596;-74
2023/09/11 15:47:18;;;;;;;4.53;4.20;;;;;;;31.46;41.39;100392.13;5032175;56;1138834;-76
2023/09/11 15:52:23;;;;;;;8.40;4.72;;;;;;;31.47;41.60;100391.83;5020024;57;1138722;-75
2023/09/11 15:57:29;;;;;;;5.58;4.03;;;;;;;31.48;41.16;100388.02;5038060;55;1138871;-73
2023/09/11 16:02:35;;;;;;;8.25;5.40;;;;;;;31.44;40.64;100388.81;5025223;56;1138790;-72
2023/09/11 16:07:41;;;;;;;7.05;4.97;;;;;;;31.44;39.99;100389.64;5031633;56;1139025;-74
2023/09/11 16:12:46;;;;;;;34.00;25.68;;;;;;;31.12;38.94;100384.67;5015040;57;1138772;-74
2023/09/11 16:17:52;;;;;;;13.62;6.62;;;;;;;31.12;38.94;100384.67;5028841;57;1143077;-73
2023/09/11 16:22:58;;;;;;;10.05;6.78;;;;;;;31.02;40.56;100393.53;5003741;56;1150811;-74
2023/09/11 16:28:04;;;;;;;5.83;5.20;;;;;;;31.00;40.59;100383.97;4946738;57;1140630;-73
2023/09/11 16:33:12;;;;;;;29.85;9.50;;;;;;;30.87;41.36;100383.80;5007330;56;1138738;-72
2023/09/11 16:38:17;;;;;;;38.73;11.50;;;;;;;30.77;44.44;100383.16;4945243;57;1140864;-74
2023/09/11 16:43:23;;;;;;;23.60;8.53;;;;;;;30.66;45.77;100388.22;4967321;57;1142894;-73
2023/09/11 16:48:29;;;;;;;13.10;6.53;;;;;;;30.44;46.60;100382.71;4965570;57;1140955;-76
2023/09/11 16:53:34;;;;;;;15.43;6.33;;;;;;;30.15;47.49;100381.75;4970767;57;1141007;-73
2023/09/11 16:58:40;;;;;;;13.25;5.40;;;;;;;29.88;48.22;100377.51;4948821;57;1140834;-74
2023/09/11 17:03:45;;;;;;;25.27;10.65;;;;;;;29.60;48.82;100376.53;4975611;57;1140861;-75
2023/09/11 17:08:54;;;;;;;42.73;8.53;;;;;;;29.46;50.33;100368.39;4974490;57;1143049;-73
2023/09/11 17:14:00;;;;;;;61.33;12.33;;;;;;;29.34;52.88;100376.58;4999206;57;1140793;-75
2023/09/11 17:19:06;;;;;;;87.27;10.10;;;;;;;29.13;54.66;100381.38;4926627;58;1142882;-75
2023/09/11 17:24:12;;;;;;;161.10;14.74;;;;;;;28.95;55.64;100373.41;4838094;57;1142854;-73
2023/09/11 17:29:17;;;;;;;151.83;12.83;;;;;;;28.81;57.42;100371.52;4948221;57;1144951;-73
2023/09/11 17:34:23;;;;;;;88.82;10.50;;;;;;;28.81;57.42;100371.52;5097811;56;1145031;-74
2023/09/11 17:39:29;;;;;;;90.17;11.35;;;;;;;28.73;57.94;100377.29;5021933;56;1143085;-75
2023/09/11 17:44:35;;;;;;;51.98;10.43;;;;;;;28.58;58.58;100374.25;4982097;57;1142801;-73
2023/09/11 17:49:43;;;;;;;47.62;11.43;;;;;;;28.23;58.89;100377.88;5014604;56;1142783;-75
2023/09/11 17:54:48;;;;;;;90.42;14.43;;;;;;;28.02;60.14;100385.24;5010292;57;1142782;-76
2023/09/11 17:59:54;;;;;;;39.27;11.63;;;;;;;27.88;61.26;100386.54;5131710;55;1143103;-75
2023/09/11 18:04:59;;;;;;;31.37;9.40;;;;;;;27.71;62.14;100380.14;5020476;56;1143012;-75
2023/09/11 18:10:06;;;;;;;50.98;11.48;;;;;;;27.59;63.39;100391.00;5081980;56;1140993;-75
2023/09/11 18:15:12;;;;;;;26.47;11.07;;;;;;;27.13;62.69;100395.20;5067305;56;1143061;-73
2023/09/11 18:20:17;;;;;;;46.63;27.85;;;;;;;26.94;64.40;100397.13;4937726;57;1143053;-74
2023/09/11 18:25:23;;;;;;;115.97;77.45;;;;;;;26.69;65.15;100409.95;5034489;56;1143042;-72
2023/09/11 18:30:29;;;;;;;17.57;9.50;;;;;;;26.50;66.93;100411.00;4927954;57;1145172;-73
2023/09/11 18:35:34;;;;;;;14.45;7.97;;;;;;;26.37;67.55;100413.33;4910629;58;1140709;-75
2023/09/11 18:40:40;;;;;;;18.10;10.10;;;;;;;26.23;67.88;100411.78;4978484;57;1140923;-73
2023/09/11 18:45:46;;;;;;;24.18;11.48;;;;;;;26.23;68.12;100423.45;4957680;57;1142895;-76
2023/09/11 18:50:52;;;;;;;27.75;9.00;;;;;;;26.18;68.39;100422.45;4956977;57;1143012;-74
2023/09/11 18:55:57;;;;;;;15.23;8.75;;;;;;;26.15;68.72;100419.66;5061616;55;1140787;-72
2023/09/11 19:01:03;;;;;;;19.67;9.40;;;;;;;26.01;68.88;100417.30;5051957;57;1140799;-73
2023/09/11 19:06:09;;;;;;;141.77;65.22;;;;;;;25.77;69.00;100419.80;4976050;57;1140887;-73
2023/09/11 19:11:15;;;;;;;32.00;16.40;;;;;;;25.59;69.18;100416.45;5000441;57;1145019;-73
2023/09/11 19:16:20;;;;;;;22.55;14.63;;;;;;;25.51;69.90;100421.33;4972176;57;1143015;-72
2023/09/11 19:21:26;;;;;;;40.30;22.82;;;;;;;25.46;70.02;100425.20;4996595;57;1142746;-72
2023/09/11 19:26:32;;;;;;;40.10;18.55;;;;;;;25.33;70.49;100416.64;4993271;57;1143014;-74
2023/09/11 19:31:37;;;;;;;20.95;12.35;;;;;;;25.25;71.32;100416.88;5098147;56;1142673;-72
2023/09/11 19:36:43;;;;;;;22.75;14.78;;;;;;;25.15;71.39;100411.95;4982901;57;1142840;-75
2023/09/11 19:41:48;;;;;;;15.58;11.80;;;;;;;25.04;71.60;100420.77;4992288;57;1143025;-73
2023/09/11 19:46:54;;;;;;;16.90;11.05;;;;;;;24.98;71.81;100417.55;5090339;56;1142837;-75
2023/09/11 19:52:01;;;;;;;24.82;12.63;;;;;;;24.89;71.67;100419.66;4947680;57;1142925;-73
2023/09/11 19:57:07;;;;;;;20.94;11.54;;;;;;;24.79;71.45;100421.97;4993688;57;1142894;-73
2023/09/11 20:02:17;;;;;;;26.90;10.98;;;;;;;24.66;72.03;100422.02;4998959;56;1144840;-72
2023/09/11 20:07:22;;;;;;;29.13;13.07;;;;;;;24.55;72.34;100417.27;5184875;55;1142997;-72
2023/09/11 20:12:30;;;;;;;19.62;12.23;;;;;;;24.47;72.32;100424.25;4979354;57;1142862;-74
2023/09/11 20:17:35;;;;;;;18.92;11.83;;;;;;;24.37;72.61;100426.05;4935396;58;1143093;-73
2023/09/11 20:22:40;;;;;;;33.67;13.03;;;;;;;24.20;72.66;100424.80;5006576;57;1143031;-72
2023/09/11 20:27:46;;;;;;;27.67;11.40;;;;;;;24.12;73.36;100417.75;4948442;57;1143079;-72
2023/09/11 20:32:52;;;;;;;21.73;13.40;;;;;;;24.04;73.41;100423.35;5004781;56;1143164;-73
2023/09/11 20:37:57;;;;;;;16.73;12.40;;;;;;;23.84;73.43;100422.00;5080918;56;1143084;-74
2023/09/11 20:43:04;;;;;;;18.82;12.50;;;;;;;23.74;74.01;100418.06;5065218;56;1143122;-74
2023/09/11 20:48:09;;;;;;;17.50;12.43;;;;;;;23.63;74.59;100415.98;4977740;57;1142719;-73
2023/09/11 20:53:15;;;;;;;18.77;10.55;;;;;;;23.52;74.65;100411.20;4994792;57;1143049;-74
2023/09/11 20:58:21;;;;;;;21.07;11.12;;;;;;;23.44;75.32;100408.13;4946205;58;1143066;-74
2023/09/11 21:03:26;;;;;;;26.07;13.40;;;;;;;23.36;75.71;100411.88;5034211;56;1143144;-73
2023/09/11 21:08:32;;;;;;;21.42;13.55;;;;;;;23.29;75.85;100412.36;4993185;57;1143000;-72
2023/09/11 21:13:38;;;;;;;22.65;14.50;;;;;;;23.20;75.88;100416.30;5014796;57;1142750;-73
2023/09/11 21:18:43;;;;;;;17.77;11.22;;;;;;;23.10;76.07;100412.62;5074385;56;1142956;-73
2023/09/11 21:23:49;;;;;;;14.35;9.63;;;;;;;23.03;76.13;100416.34;5051986;56;1142777;-73
2023/09/11 21:28:54;;;;;;;15.32;10.10;;;;;;;22.97;76.47;100404.48;5131459;55;1141088;-72
2023/09/11 21:34:00;;;;;;;11.40;8.80;;;;;;;22.90;76.66;100413.60;5106242;55;1142869;-72
2023/09/11 21:39:05;;;;;;;12.03;9.68;;;;;;;22.77;76.60;100410.31;5076264;56;1140774;-74
2023/09/11 21:44:11;;;;;;;12.03;10.38;;;;;;;22.68;77.04;100413.67;5108613;56;1140964;-75
2023/09/11 21:49:17;;;;;;;14.68;8.93;;;;;;;22.69;77.46;100419.38;5088434;55;1143092;-72
2023/09/11 21:54:23;;;;;;;14.20;9.53;;;;;;;22.63;77.45;100409.91;5120685;56;1141185;-72
2023/09/11 21:59:28;;;;;;;10.95;9.43;;;;;;;22.55;77.17;100413.61;5081072;56;1140868;-72
2023/09/11 22:04:34;;;;;;;14.33;9.88;;;;;;;22.49;77.59;100414.91;4902830;58;1140933;-72
2023/09/11 22:09:39;;;;;;;16.97;10.53;;;;;;;22.41;77.63;100410.02;5037721;56;1140527;-74
2023/09/11 22:14:46;;;;;;;20.62;11.50;;;;;;;22.19;77.32;100408.41;5033561;56;1143049;-73
2023/09/11 22:19:52;;;;;;;19.23;11.40;;;;;;;21.93;77.42;100416.27;5118154;56;1142767;-74
2023/09/11 22:24:58;;;;;;;13.98;9.73;;;;;;;21.78;78.43;100410.97;5110598;56;1143088;-73
2023/09/11 22:30:03;;;;;;;16.42;10.48;;;;;;;21.67;78.77;100404.78;5074588;56;1140655;-72
2023/09/11 22:35:09;;;;;;;12.75;9.48;;;;;;;21.67;79.40;100407.47;5118991;56;1143020;-73
2023/09/11 22:40:15;;;;;;;12.63;9.45;;;;;;;21.66;79.65;100405.29;5016757;56;1140911;-74
2023/09/11 22:45:20;;;;;;;9.75;8.75;;;;;;;21.62;79.89;100407.20;5086014;56;1140708;-75
2023/09/11 22:50:26;;;;;;;9.98;9.08;;;;;;;21.62;80.51;100401.31;5129243;56;1138763;-73
2023/09/11 22:55:32;;;;;;;13.72;9.68;;;;;;;21.57;80.13;100398.36;4971713;56;1138828;-74